Time;durP1;ratioP1;P1;durP2;ratioP2;P2;SDS_P1;SDS_P2;PMS_P1;PMS_P2;Temp;Humidity;BMP_temperature;BMP_pressure;BME280_temperature;BME280_humidity;BME280_pressure;Samples;Min_cycle;Max_cycle;Signal;HPM_P1;HPM_P2
2021/09/10 00:00:15;;;;;;;9.85;6.88;;;;;;;20.98;52.41;100743.78;691675;28;22376;-66
2021/09/10 00:00:36;;;;;;;9.23;7.07;;;;;;;20.95;52.37;100744.28;690487;28;43975;-66
2021/09/10 00:00:57;;;;;;;8.73;7.00;;;;;;;20.97;52.17;100744.91;690887;28;22440;-67
2021/09/10 00:01:18;;;;;;;9.65;6.82;;;;;;;20.96;52.44;100743.22;691676;28;21536;-66
2021/09/10 00:01:40;;;;;;;7.88;6.43;;;;;;;20.96;52.38;100747.88;689819;28;22407;-66
2021/09/10 00:02:01;;;;;;;7.07;6.38;;;;;;;20.94;52.51;100739.91;690890;28;44394;-66
2021/09/10 00:02:23;;;;;;;8.15;6.38;;;;;;;20.96;52.56;100742.41;688897;28;46731;-68
2021/09/10 00:02:44;;;;;;;7.38;6.43;;;;;;;20.96;52.45;100740.47;690607;28;22400;-66
2021/09/10 00:03:05;;;;;;;7.88;6.63;;;;;;;20.95;52.39;100735.22;691133;28;21106;-67
2021/09/10 00:03:27;;;;;;;8.45;6.80;;;;;;;20.97;52.45;100738.56;691114;28;22404;-66
2021/09/10 00:03:48;;;;;;;9.02;6.95;;;;;;;20.97;52.19;100738.56;689685;28;67470;-65
2021/09/10 00:04:09;;;;;;;8.63;6.55;;;;;;;20.98;52.31;100740.22;691197;28;22368;-65
2021/09/10 00:04:30;;;;;;;7.50;6.80;;;;;;;20.94;52.32;100733.56;689815;28;46769;-66
2021/09/10 00:04:52;;;;;;;7.50;6.80;;;;;;;20.97;52.48;100742.16;689694;28;45266;-69
2021/09/10 00:05:13;;;;;;;7.13;6.43;;;;;;;20.95;52.24;100740.72;688129;28;69496;-66
2021/09/10 00:05:35;;;;;;;8.07;6.47;;;;;;;20.96;52.53;100745.16;691304;28;22400;-68
2021/09/10 00:05:56;;;;;;;7.38;6.68;;;;;;;20.90;52.72;100732.41;690888;28;22352;-68
2021/09/10 00:06:22;;;;;;;7.65;6.70;;;;;;;20.95;52.64;100743.47;690433;28;22239;-65
2021/09/10 00:06:44;;;;;;;10.77;7.07;;;;;;;20.97;52.51;100741.31;687061;28;136184;-66
2021/09/10 00:07:06;;;;;;;8.18;7.13;;;;;;;20.90;52.53;100729.66;690727;28;46342;-65
2021/09/10 00:07:27;;;;;;;7.90;6.78;;;;;;;20.98;52.46;100734.75;690140;28;44497;-66
2021/09/10 00:07:49;;;;;;;8.77;6.68;;;;;;;20.98;52.49;100743.78;690359;28;22419;-66
2021/09/10 00:08:10;;;;;;;8.15;6.85;;;;;;;20.99;52.29;100737.25;688906;28;44422;-69
2021/09/10 00:08:31;;;;;;;8.48;6.70;;;;;;;21.00;52.34;100744.41;689758;28;22410;-66
2021/09/10 00:08:53;;;;;;;7.95;6.85;;;;;;;20.98;52.38;100730.06;689754;28;21539;-66
2021/09/10 00:09:14;;;;;;;7.50;6.80;;;;;;;21.01;52.41;100746.06;687948;28;22254;-65
2021/09/10 00:09:36;;;;;;;7.25;6.55;;;;;;;21.02;52.28;100735.94;686154;28;66489;-65
2021/09/10 00:09:57;;;;;;;7.53;6.75;;;;;;;21.02;52.22;100742.25;687530;28;46209;-64
2021/09/10 00:10:18;;;;;;;7.22;6.53;;;;;;;21.05;52.17;100735.44;688047;28;16545;-65
2021/09/10 00:10:40;;;;;;;7.63;6.88;;;;;;;21.03;52.15;100735.69;688285;28;23465;-67
2021/09/10 00:11:02;;;;;;;9.93;6.93;;;;;;;21.04;51.92;100740.06;687856;28;46364;-67
2021/09/10 00:11:23;;;;;;;9.60;7.00;;;;;;;21.00;52.18;100730.69;691894;28;23471;-70
2021/09/10 00:11:44;;;;;;;8.60;6.57;;;;;;;20.99;52.03;100725.44;690350;28;44454;-67
2021/09/10 00:12:07;;;;;;;8.82;6.55;;;;;;;21.02;52.12;100734.00;691225;28;22416;-70
2021/09/10 00:12:28;;;;;;;7.57;6.78;;;;;;;21.02;52.28;100742.25;690347;28;43819;-67
2021/09/10 00:12:49;;;;;;;8.50;6.80;;;;;;;21.01;52.31;100745.22;691456;28;21396;-68
2021/09/10 00:13:10;;;;;;;11.45;7.00;;;;;;;21.00;52.28;100743.56;690506;28;23440;-65
2021/09/10 00:13:32;;;;;;;10.10;6.93;;;;;;;20.98;52.19;100734.75;690957;28;23454;-68
2021/09/10 00:13:53;;;;;;;7.70;6.93;;;;;;;20.96;52.44;100732.25;690400;28;45247;-70
2021/09/10 00:14:14;;;;;;;7.55;6.68;;;;;;;20.91;52.42;100740.38;691952;28;23475;-66
2021/09/10 00:14:35;;;;;;;8.73;6.50;;;;;;;20.92;52.39;100744.78;690632;28;22418;-69
2021/09/10 00:14:56;;;;;;;8.95;7.10;;;;;;;20.92;52.29;100746.69;690883;28;23402;-67
2021/09/10 00:15:18;;;;;;;7.20;6.50;;;;;;;20.88;52.43;100738.13;691116;28;22478;-68
2021/09/10 00:15:39;;;;;;;7.53;6.75;;;;;;;20.85;52.42;100742.19;690321;28;44404;-67
2021/09/10 00:16:00;;;;;;;7.38;6.63;;;;;;;20.85;52.59;100744.94;690769;28;22421;-68
2021/09/10 00:16:21;;;;;;;8.57;6.90;;;;;;;20.80;52.62;100733.03;690823;28;21531;-65
2021/09/10 00:16:42;;;;;;;8.88;6.80;;;;;;;20.79;52.68;100736.84;691024;28;22370;-68
2021/09/10 00:17:04;;;;;;;7.45;6.72;;;;;;;20.78;52.69;100730.53;690589;28;22407;-68
2021/09/10 00:17:25;;;;;;;7.80;7.00;;;;;;;20.81;52.75;100742.94;689371;28;69425;-69
2021/09/10 00:17:46;;;;;;;8.77;7.40;;;;;;;20.80;52.85;100741.25;689789;28;22416;-67
2021/09/10 00:18:07;;;;;;;10.07;7.35;;;;;;;20.77;52.93;100736.25;690846;28;21543;-69
2021/09/10 00:18:30;;;;;;;8.13;7.32;;;;;;;20.76;52.87;100740.91;689402;28;22458;-67
2021/09/10 00:18:51;;;;;;;7.50;6.80;;;;;;;20.74;52.82;100731.28;688534;28;46316;-67
2021/09/10 00:19:12;;;;;;;6.82;6.22;;;;;;;20.75;53.04;100735.66;690627;28;21453;-66
2021/09/10 00:19:33;;;;;;;7.03;6.32;;;;;;;20.75;53.13;100741.97;690326;28;23421;-70
2021/09/10 00:19:55;;;;;;;10.07;7.10;;;;;;;20.74;53.27;100734.03;691033;28;22405;-68
2021/09/10 00:20:16;;;;;;;8.00;6.78;;;;;;;20.73;53.18;100735.91;690253;28;46589;-66
2021/09/10 00:20:37;;;;;;;9.02;7.03;;;;;;;20.68;53.25;100733.91;691295;28;21527;-69
2021/09/10 00:20:58;;;;;;;7.65;6.45;;;;;;;20.70;53.40;100742.75;690783;28;22399;-68
2021/09/10 00:21:20;;;;;;;8.18;6.88;;;;;;;20.69;53.27;100741.06;691361;28;21519;-68
2021/09/10 00:21:41;;;;;;;7.63;6.60;;;;;;;20.72;53.32;100744.41;688879;28;46296;-68
2021/09/10 00:22:03;;;;;;;7.15;6.47;;;;;;;20.71;53.13;100743.56;689779;28;22392;-68
2021/09/10 00:22:25;;;;;;;7.35;6.65;;;;;;;20.72;53.21;100739.75;690951;28;22162;-68
2021/09/10 00:22:47;;;;;;;8.70;6.68;;;;;;;20.73;53.26;100740.59;689174;28;69467;-67
2021/09/10 00:23:08;;;;;;;10.98;6.85;;;;;;;20.69;53.22;100735.59;689325;28;45281;-67
2021/09/10 00:23:29;;;;;;;8.25;6.78;;;;;;;20.69;53.24;100735.59;690861;28;22295;-70
2021/09/10 00:23:50;;;;;;;7.80;7.00;;;;;;;20.70;53.30;100747.38;690781;28;21468;-68
2021/09/10 00:24:12;;;;;;;7.40;6.50;;;;;;;20.68;53.35;100736.66;690910;28;22418;-69
2021/09/10 00:24:33;;;;;;;7.15;6.45;;;;;;;20.67;53.61;100743.22;690112;28;45264;-68
2021/09/10 00:24:54;;;;;;;7.90;6.65;;;;;;;20.66;53.58;100744.31;690600;28;22442;-67
2021/09/10 00:25:15;;;;;;;7.68;6.88;;;;;;;20.64;53.58;100742.84;691259;28;21525;-67
2021/09/10 00:25:37;;;;;;;8.68;6.72;;;;;;;20.62;53.72;100745.00;690697;28;22447;-67
2021/09/10 00:25:58;;;;;;;8.82;7.05;;;;;;;20.61;53.80;100746.06;690216;28;45292;-67
2021/09/10 00:26:20;;;;;;;7.82;6.45;;;;;;;20.58;53.88;100743.81;690922;28;22370;-67
2021/09/10 00:26:42;;;;;;;7.82;6.47;;;;;;;20.57;53.77;100739.41;690954;28;22253;-66
2021/09/10 00:27:03;;;;;;;10.07;7.05;;;;;;;20.53;53.78;100744.53;689623;28;45258;-67
2021/09/10 00:27:24;;;;;;;8.52;7.15;;;;;;;20.50;53.84;100737.66;687813;28;21530;-67
2021/09/10 00:27:46;;;;;;;8.35;6.95;;;;;;;20.51;54.02;100749.44;687445;28;22379;-67
2021/09/10 00:28:07;;;;;;;8.70;6.90;;;;;;;20.51;53.97;100746.69;687211;28;46322;-66
2021/09/10 00:28:28;;;;;;;8.23;6.82;;;;;;;20.49;53.91;100746.94;686366;28;22408;-68
2021/09/10 00:28:49;;;;;;;7.50;6.80;;;;;;;20.49;54.11;100748.88;686006;28;44187;-69
2021/09/10 00:29:11;;;;;;;8.85;6.97;;;;;;;20.46;54.07;100744.69;685837;28;44232;-68
2021/09/10 00:29:32;;;;;;;9.68;7.28;;;;;;;20.47;54.19;100751.00;688306;28;44055;-68
2021/09/10 00:29:54;;;;;;;8.85;7.38;;;;;;;20.45;54.13;100743.00;689225;28;22401;-69
2021/09/10 00:30:15;;;;;;;10.55;7.22;;;;;;;20.44;54.33;100746.00;689663;28;21302;-68
2021/09/10 00:30:37;;;;;;;9.23;7.00;;;;;;;20.42;54.24;100740.75;687948;28;22219;-66
2021/09/10 00:30:58;;;;;;;9.32;6.65;;;;;;;20.40;54.40;100745.66;687518;28;44399;-67
2021/09/10 00:31:19;;;;;;;8.90;7.00;;;;;;;20.40;54.37;100745.66;688501;28;22368;-69
2021/09/10 00:31:40;;;;;;;9.18;6.97;;;;;;;20.40;54.45;100750.31;688382;28;20856;-67
2021/09/10 00:32:03;;;;;;;9.93;6.97;;;;;;;20.38;54.57;100747.81;688434;28;21341;-68
2021/09/10 00:32:24;;;;;;;11.30;7.20;;;;;;;20.38;54.32;100745.06;686954;28;67634;-67
2021/09/10 00:32:45;;;;;;;9.18;6.82;;;;;;;20.41;54.30;100747.34;691176;28;22293;-67
2021/09/10 00:33:06;;;;;;;7.80;6.90;;;;;;;20.43;54.36;100745.16;690965;28;21509;-68
2021/09/10 00:33:28;;;;;;;9.45;7.03;;;;;;;20.44;54.22;100748.75;690937;28;21659;-66
2021/09/10 00:33:52;;;;;;;7.93;6.65;;;;;;;20.45;54.26;100739.44;690115;28;46673;-68
2021/09/10 00:34:13;;;;;;;8.13;6.70;;;;;;;20.46;54.18;100743.88;688925;28;92275;-67
2021/09/10 00:34:34;;;;;;;7.65;6.90;;;;;;;20.45;54.04;100745.75;690928;28;22407;-68
2021/09/10 00:34:56;;;;;;;7.70;6.95;;;;;;;20.46;54.17;100741.13;690658;28;22433;-67
2021/09/10 00:35:17;;;;;;;7.60;6.90;;;;;;;20.49;53.99;100744.19;690328;28;44375;-68
2021/09/10 00:35:38;;;;;;;7.70;6.90;;;;;;;20.51;53.95;100739.28;690879;28;21534;-68
2021/09/10 00:35:59;;;;;;;8.27;7.28;;;;;;;20.52;54.04;100737.41;690783;28;23813;-69
2021/09/10 00:36:22;;;;;;;8.07;7.25;;;;;;;20.54;53.80;100743.47;690787;28;22399;-67
2021/09/10 00:36:44;;;;;;;7.43;6.60;;;;;;;20.56;53.76;100740.50;690103;28;46281;-66
2021/09/10 00:37:05;;;;;;;7.93;6.80;;;;;;;20.60;53.79;100738.94;688860;28;68397;-70
2021/09/10 00:37:29;;;;;;;10.48;7.05;;;;;;;20.60;53.71;100744.41;690763;28;21340;-68
2021/09/10 00:37:55;;;;;;;8.50;6.93;;;;;;;20.64;53.61;100740.09;688603;28;69581;-67
2021/09/10 00:38:16;;;;;;;11.38;7.45;;;;;;;20.66;53.43;100735.25;686042;28;161026;-67
2021/09/10 00:38:40;;;;;;;7.78;6.72;;;;;;;20.63;53.42;100728.28;688623;28;5689;-66
2021/09/10 00:39:03;;;;;;;7.68;6.97;;;;;;;20.70;53.24;100740.00;685717;28;92110;-65
2021/09/10 00:39:24;;;;;;;7.63;6.93;;;;;;;20.70;53.32;100739.16;687144;28;45299;-69
2021/09/10 00:39:45;;;;;;;7.53;6.60;;;;;;;20.73;53.43;100737.84;687737;28;21185;-67
2021/09/10 00:40:09;;;;;;;7.72;6.80;;;;;;;20.69;53.60;100735.59;688211;28;22413;-68
2021/09/10 00:40:30;;;;;;;7.88;7.07;;;;;;;20.71;53.54;100743.56;686305;28;115253;-66
2021/09/10 00:40:52;;;;;;;8.00;7.10;;;;;;;20.69;53.59;100738.31;691134;28;21549;-67
2021/09/10 00:41:13;;;;;;;8.90;6.85;;;;;;;20.68;53.77;100742.13;691429;28;21545;-66
2021/09/10 00:41:34;;;;;;;11.30;7.00;;;;;;;20.67;53.78;100736.91;688831;28;22392;-68
2021/09/10 00:41:56;;;;;;;10.45;6.60;;;;;;;20.65;53.86;100747.28;691005;28;23477;-67
2021/09/10 00:42:17;;;;;;;7.28;6.50;;;;;;;20.62;53.85;100743.09;690331;28;46319;-67
2021/09/10 00:42:38;;;;;;;10.05;6.88;;;;;;;20.61;53.86;100740.59;690976;28;22283;-69
2021/09/10 00:42:59;;;;;;;10.32;6.68;;;;;;;20.60;53.94;100745.25;690928;28;23421;-66
2021/09/10 00:43:21;;;;;;;9.23;6.93;;;;;;;20.58;53.94;100741.06;690861;28;22430;-67
2021/09/10 00:43:42;;;;;;;8.57;6.95;;;;;;;20.57;54.02;100740.25;688838;28;44382;-68
2021/09/10 00:44:03;;;;;;;8.57;6.95;;;;;;;20.55;53.97;100734.19;689646;28;23459;-67
2021/09/10 00:44:27;;;;;;;8.60;7.18;;;;;;;20.54;53.99;100740.72;688857;28;45244;-67
2021/09/10 00:44:49;;;;;;;8.75;7.05;;;;;;;20.51;53.98;100735.72;688653;28;67143;-68
2021/09/10 00:45:11;;;;;;;7.90;6.95;;;;;;;20.49;54.11;100746.94;690317;28;46201;-69
2021/09/10 00:45:32;;;;;;;8.15;7.07;;;;;;;20.47;54.32;100740.03;690101;28;46655;-66
2021/09/10 00:45:56;;;;;;;8.75;6.80;;;;;;;20.45;54.27;100737.53;690851;28;21388;-67
2021/09/10 00:46:18;;;;;;;11.90;7.03;;;;;;;20.40;54.29;100737.44;688528;28;90755;-66
2021/09/10 00:46:40;;;;;;;10.25;7.30;;;;;;;20.41;54.27;100741.84;688845;28;44463;-66
2021/09/10 00:47:01;;;;;;;8.10;7.30;;;;;;;20.39;54.32;100734.94;688898;28;44357;-66
2021/09/10 00:47:23;;;;;;;7.60;6.90;;;;;;;20.37;54.56;100740.66;689650;28;23391;-66
2021/09/10 00:47:45;;;;;;;7.70;6.90;;;;;;;20.36;54.53;100739.00;688189;28;45388;-66
2021/09/10 00:48:06;;;;;;;8.88;7.30;;;;;;;20.33;54.33;100731.25;687158;28;45046;-68
2021/09/10 00:48:27;;;;;;;8.77;7.30;;;;;;;20.30;54.64;100738.06;688097;28;23346;-67
2021/09/10 00:48:48;;;;;;;8.40;7.10;;;;;;;20.31;54.58;100736.13;688100;28;22390;-68
2021/09/10 00:49:10;;;;;;;8.63;7.00;;;;;;;20.28;54.71;100733.88;688218;28;22524;-66
2021/09/10 00:49:31;;;;;;;8.07;7.05;;;;;;;20.26;54.86;100734.13;686875;28;44379;-67
2021/09/10 00:49:52;;;;;;;9.20;7.20;;;;;;;20.26;54.86;100738.78;688102;28;22377;-67
2021/09/10 00:50:13;;;;;;;8.05;6.93;;;;;;;20.25;54.98;100735.22;691099;28;22243;-66
2021/09/10 00:50:35;;;;;;;11.05;7.40;;;;;;;20.21;55.17;100739.50;690946;28;23535;-66
2021/09/10 00:50:56;;;;;;;11.18;7.40;;;;;;;20.20;55.08;100735.06;690909;28;23396;-67
2021/09/10 00:51:19;;;;;;;13.15;7.40;;;;;;;20.17;55.17;100739.16;691958;28;22397;-66
2021/09/10 00:51:41;;;;;;;10.43;7.57;;;;;;;20.17;55.04;100738.31;688678;28;90798;-67
2021/09/10 00:52:02;;;;;;;8.00;7.20;;;;;;;20.14;55.17;100739.63;690275;28;22186;-69
2021/09/10 00:52:24;;;;;;;7.93;7.22;;;;;;;20.15;55.41;100737.72;688903;28;44379;-67
2021/09/10 00:52:47;;;;;;;7.50;6.78;;;;;;;20.14;55.24;100738.78;690802;28;23454;-69
2021/09/10 00:53:08;;;;;;;7.78;7.10;;;;;;;20.13;55.35;100739.88;688285;28;90356;-67
2021/09/10 00:53:30;;;;;;;7.70;7.00;;;;;;;20.13;55.38;100731.66;690542;28;22412;-66
2021/09/10 00:53:51;;;;;;;12.18;6.68;;;;;;;20.11;55.50;100740.13;691054;28;23481;-67
2021/09/10 00:54:12;;;;;;;7.60;6.78;;;;;;;19.95;55.41;100717.03;690365;28;23473;-68
2021/09/10 00:54:34;;;;;;;9.68;6.93;;;;;;;20.09;55.58;100735.94;691129;28;21407;-68
2021/09/10 00:54:55;;;;;;;10.40;7.25;;;;;;;20.08;55.42;100739.78;689699;28;45244;-66
2021/09/10 00:55:24;;;;;;;9.38;7.07;;;;;;;20.06;55.62;100737.28;690852;28;23411;-68
2021/09/10 00:55:45;;;;;;;8.70;7.55;;;;;;;20.06;55.61;100737.28;687736;28;138059;-68
2021/09/10 00:56:07;;;;;;;8.20;7.40;;;;;;;20.06;55.72;100739.16;690923;28;22209;-67
2021/09/10 00:56:28;;;;;;;8.27;7.28;;;;;;;20.03;55.68;100731.41;689762;28;46288;-67
2021/09/10 00:56:49;;;;;;;8.38;7.43;;;;;;;20.03;55.77;100735.00;690968;28;22430;-67
2021/09/10 00:57:10;;;;;;;8.57;7.68;;;;;;;20.03;55.72;100735.00;691955;28;22332;-67
2021/09/10 00:57:32;;;;;;;8.65;7.75;;;;;;;20.01;55.78;100737.13;690908;28;21226;-66
2021/09/10 00:57:53;;;;;;;7.95;7.25;;;;;;;19.96;55.81;100731.56;688891;28;45264;-67
2021/09/10 00:58:15;;;;;;;9.70;7.10;;;;;;;19.99;55.74;100742.84;691957;28;1616;-67
2021/09/10 00:58:36;;;;;;;11.75;6.90;;;;;;;19.99;55.74;100733.81;689517;28;44429;-68
2021/09/10 00:59:00;;;;;;;9.93;6.90;;;;;;;19.97;55.99;100736.78;690874;28;21553;-67
2021/09/10 00:59:21;;;;;;;8.13;7.03;;;;;;;19.98;55.99;100743.09;688269;28;92202;-68
2021/09/10 00:59:42;;;;;;;8.15;7.35;;;;;;;19.96;56.07;100732.38;689955;28;22424;-67
2021/09/10 01:00:04;;;;;;;7.70;6.85;;;;;;;19.94;55.97;100736.44;690972;28;22391;-67
2021/09/10 01:00:26;;;;;;;7.90;7.20;;;;;;;19.97;56.06;100735.97;690190;28;46822;-68
2021/09/10 01:00:48;;;;;;;7.95;7.15;;;;;;;19.95;56.11;100738.94;688696;28;42716;-67
2021/09/10 01:01:09;;;;;;;8.15;6.90;;;;;;;19.93;56.15;100745.72;690753;28;22408;-68
2021/09/10 01:01:30;;;;;;;8.50;7.05;;;;;;;19.90;56.36;100732.50;690170;28;21404;-66
2021/09/10 01:01:52;;;;;;;11.18;7.32;;;;;;;19.93;56.20;100741.06;689503;28;45265;-68
2021/09/10 01:02:13;;;;;;;8.35;7.22;;;;;;;19.92;56.08;100741.31;690028;28;46325;-67
2021/09/10 01:02:35;;;;;;;7.35;6.70;;;;;;;19.91;56.25;100735.00;690706;28;21316;-67
2021/09/10 01:02:56;;;;;;;8.98;7.40;;;;;;;19.91;56.22;100740.50;690292;28;20900;-68
2021/09/10 01:03:19;;;;;;;8.05;7.25;;;;;;;19.90;56.35;100736.06;690158;28;46249;-66
2021/09/10 01:03:40;;;;;;;7.78;7.00;;;;;;;19.92;56.15;100744.91;689886;28;1299;-68
2021/09/10 01:04:02;;;;;;;10.40;7.30;;;;;;;19.87;56.14;100733.81;689295;28;23415;-67
2021/09/10 01:04:23;;;;;;;8.07;6.97;;;;;;;19.93;56.09;100743.00;688393;28;47298;-67
2021/09/10 01:04:46;;;;;;;7.78;6.93;;;;;;;19.92;56.12;100741.31;687987;28;45238;-67
2021/09/10 01:05:07;;;;;;;10.40;7.40;;;;;;;19.91;56.08;100732.25;688400;28;46325;-68
2021/09/10 01:05:29;;;;;;;8.88;7.57;;;;;;;19.89;56.04;100728.94;689186;28;46300;-69
2021/09/10 01:05:50;;;;;;;8.63;7.30;;;;;;;19.91;55.94;100742.41;691443;28;22350;-67
2021/09/10 01:06:12;;;;;;;8.80;7.38;;;;;;;19.90;56.03;100740.72;691691;28;22475;-67
2021/09/10 01:06:34;;;;;;;10.65;7.47;;;;;;;19.87;56.01;100742.03;689723;28;56170;-67
2021/09/10 01:06:55;;;;;;;8.02;7.22;;;;;;;19.87;56.07;100749.44;691523;28;23476;-68
2021/09/10 01:07:16;;;;;;;9.30;7.45;;;;;;;19.88;56.10;100749.19;690798;28;46572;-68
2021/09/10 01:07:38;;;;;;;10.00;7.20;;;;;;;19.87;56.13;100749.44;691373;28;22419;-68
2021/09/10 01:08:02;;;;;;;8.93;7.20;;;;;;;19.85;56.17;100746.09;690434;28;46338;-67
2021/09/10 01:08:23;;;;;;;8.55;7.57;;;;;;;19.85;56.22;100746.09;687343;28;92298;-66
2021/09/10 01:08:45;;;;;;;9.10;7.38;;;;;;;19.84;56.26;100750.72;687577;28;45257;-66
2021/09/10 01:09:07;;;;;;;8.93;6.82;;;;;;;19.84;56.37;100749.91;688479;28;22392;-68
2021/09/10 01:09:30;;;;;;;8.05;7.00;;;;;;;19.82;56.39;100754.78;687418;28;45198;-66
2021/09/10 01:09:51;;;;;;;8.45;7.22;;;;;;;19.82;56.54;100746.56;687813;28;67212;-67
2021/09/10 01:10:12;;;;;;;8.77;6.88;;;;;;;19.84;56.51;100745.25;690291;28;23444;-67
2021/09/10 01:10:35;;;;;;;7.95;6.93;;;;;;;19.78;57.03;100743.47;690307;28;46262;-66
2021/09/10 01:10:57;;;;;;;9.55;6.90;;;;;;;19.82;56.65;100744.66;690598;28;46505;-66
2021/09/10 01:11:18;;;;;;;8.73;6.72;;;;;;;19.83;56.62;100748.22;690420;28;46334;-67
2021/09/10 01:11:39;;;;;;;8.25;7.20;;;;;;;19.82;56.53;100741.09;691355;28;1126;-68
2021/09/10 01:12:00;;;;;;;8.40;7.20;;;;;;;19.84;56.50;100744.41;688559;28;21537;-67
2021/09/10 01:12:23;;;;;;;8.30;7.28;;;;;;;19.84;56.67;100741.69;688379;28;23259;-67
2021/09/10 01:12:44;;;;;;;10.27;7.72;;;;;;;19.85;56.44;100744.19;686904;28;69298;-67
2021/09/10 01:13:05;;;;;;;8.93;7.03;;;;;;;19.86;56.52;100745.88;688255;28;22406;-68
2021/09/10 01:13:27;;;;;;;8.80;7.18;;;;;;;19.86;56.29;100745.00;688798;28;21510;-68
2021/09/10 01:13:50;;;;;;;7.90;7.20;;;;;;;19.85;56.40;100746.09;688746;28;45254;-67
2021/09/10 01:14:12;;;;;;;8.43;7.07;;;;;;;19.86;56.41;100753.22;690865;28;44367;-68
2021/09/10 01:14:33;;;;;;;8.80;7.25;;;;;;;19.86;56.24;100739.53;689849;28;67483;-68
2021/09/10 01:14:56;;;;;;;9.30;7.03;;;;;;;19.87;56.27;100754.91;691046;28;21555;-66
2021/09/10 01:15:17;;;;;;;7.68;6.97;;;;;;;19.86;56.41;100747.75;690769;28;46294;-67
2021/09/10 01:15:38;;;;;;;8.20;7.40;;;;;;;19.85;56.32;100743.34;690665;28;46939;-68
2021/09/10 01:16:00;;;;;;;9.35;7.30;;;;;;;19.85;56.27;100748.84;690696;28;47318;-67
2021/09/10 01:16:21;;;;;;;9.77;7.72;;;;;;;19.85;56.18;100749.66;691105;28;23426;-65
2021/09/10 01:16:44;;;;;;;8.20;7.32;;;;;;;19.85;56.22;100755.16;690694;28;46352;-67
2021/09/10 01:17:05;;;;;;;8.02;6.85;;;;;;;19.85;56.12;100754.31;690509;28;43581;-65
2021/09/10 01:17:26;;;;;;;7.90;7.18;;;;;;;19.84;56.19;100750.72;690998;28;44541;-66
2021/09/10 01:17:48;;;;;;;8.70;7.45;;;;;;;19.80;56.20;100744.91;691181;28;21532;-65
2021/09/10 01:18:10;;;;;;;10.35;7.22;;;;;;;19.84;56.34;100752.66;691255;28;20970;-66
2021/09/10 01:18:31;;;;;;;10.48;7.00;;;;;;;19.78;56.37;100746.19;690613;28;45252;-67
2021/09/10 01:18:52;;;;;;;10.65;6.90;;;;;;;19.83;56.43;100750.97;691616;28;21525;-65
2021/09/10 01:19:22;;;;;;;9.45;7.10;;;;;;;19.80;56.41;100747.63;690936;28;23561;-66
2021/09/10 01:19:44;;;;;;;8.68;7.10;;;;;;;19.82;56.19;100754.78;683706;28;137859;-68
2021/09/10 01:20:07;;;;;;;8.48;7.30;;;;;;;19.74;56.17;100745.00;688096;28;45257;-67
2021/09/10 01:20:28;;;;;;;8.10;7.30;;;;;;;19.79;56.47;100745.13;686286;28;92579;-66
2021/09/10 01:20:49;;;;;;;9.07;7.50;;;;;;;19.80;56.21;100749.56;688145;28;44211;-65
2021/09/10 01:21:11;;;;;;;8.43;7.43;;;;;;;19.83;56.18;100750.97;688723;28;22422;-65
2021/09/10 01:21:33;;;;;;;9.20;7.20;;;;;;;19.80;56.26;100752.28;688559;28;44191;-65
2021/09/10 01:21:56;;;;;;;9.25;7.43;;;;;;;19.82;56.20;100755.63;690621;28;44390;-65
2021/09/10 01:22:17;;;;;;;8.10;7.32;;;;;;;19.80;56.46;100752.28;689829;28;67513;-66
2021/09/10 01:22:39;;;;;;;7.72;6.90;;;;;;;19.80;56.37;100752.28;691730;28;22355;-65
2021/09/10 01:23:01;;;;;;;8.25;7.40;;;;;;;19.79;56.36;100753.34;690627;28;47296;-66
2021/09/10 01:23:22;;;;;;;8.85;7.32;;;;;;;19.75;56.21;100747.50;690328;28;44367;-65
2021/09/10 01:23:43;;;;;;;8.60;7.38;;;;;;;19.77;56.17;100753.59;691571;28;22446;-70
2021/09/10 01:24:05;;;;;;;9.55;7.50;;;;;;;19.75;56.36;100743.94;692895;28;22413;-65
2021/09/10 01:24:30;;;;;;;9.32;7.65;;;;;;;19.72;56.44;100756.19;691198;28;46295;-65
2021/09/10 01:25:10;;;;;;;7.72;6.97;;;;;;;19.73;56.35;100751.53;688551;28;92133;-65
2021/09/10 01:25:32;;;;;;;10.48;7.82;;;;;;;19.72;56.55;100750.72;687021;28;135813;-66
2021/09/10 01:25:53;;;;;;;9.27;7.65;;;;;;;19.69;56.42;100756.66;690679;28;45262;-66
2021/09/10 01:26:14;;;;;;;8.40;7.57;;;;;;;19.70;56.61;100752.00;691311;28;23487;-65
2021/09/10 01:26:35;;;;;;;8.60;7.57;;;;;;;19.70;56.63;100754.75;690874;28;22392;-65
2021/09/10 01:26:57;;;;;;;8.45;7.43;;;;;;;19.68;56.61;100752.25;691473;28;20937;-65
2021/09/10 01:27:19;;;;;;;9.50;7.65;;;;;;;19.68;56.61;100752.25;690475;28;44179;-65
2021/09/10 01:27:42;;;;;;;8.65;7.35;;;;;;;19.68;56.66;100757.72;688730;28;47438;-65
2021/09/10 01:28:03;;;;;;;8.48;7.57;;;;;;;19.69;56.65;100761.31;690607;28;46341;-65
2021/09/10 01:28:24;;;;;;;10.20;8.00;;;;;;;19.68;56.53;100759.63;690660;28;45955;-65
2021/09/10 01:28:46;;;;;;;10.88;8.20;;;;;;;19.69;56.78;100756.66;690255;28;21531;-68
2021/09/10 01:29:07;;;;;;;11.02;7.95;;;;;;;19.70;56.84;100761.09;689436;28;46891;-67
2021/09/10 01:29:30;;;;;;;8.93;7.32;;;;;;;19.70;56.86;100760.22;690150;28;21161;-65
2021/09/10 01:29:51;;;;;;;8.38;7.53;;;;;;;19.70;56.85;100763.81;691457;28;46309;-65
2021/09/10 01:30:14;;;;;;;8.20;7.40;;;;;;;19.71;56.83;100760.00;691407;28;21525;-66
2021/09/10 01:30:37;;;;;;;8.45;7.57;;;;;;;19.71;56.85;100749.03;689713;28;92228;-68
2021/09/10 01:30:58;;;;;;;9.32;7.85;;;;;;;19.74;56.70;100761.44;690555;28;45214;-67
2021/09/10 01:31:19;;;;;;;9.82;7.60;;;;;;;19.74;56.70;100759.53;691421;28;23421;-66
2021/09/10 01:31:40;;;;;;;8.30;7.30;;;;;;;19.77;56.71;100758.25;691065;28;21539;-65
2021/09/10 01:32:02;;;;;;;8.32;7.47;;;;;;;19.72;56.56;100753.44;688487;28;22363;-65
2021/09/10 01:32:24;;;;;;;9.45;8.00;;;;;;;19.77;56.56;100759.06;686987;28;69436;-67
2021/09/10 01:32:45;;;;;;;8.93;7.65;;;;;;;19.77;56.48;100755.50;688899;28;22317;-64
2021/09/10 01:33:08;;;;;;;8.45;7.25;;;;;;;19.78;56.51;100754.41;688786;28;22391;-64
2021/09/10 01:33:30;;;;;;;8.00;7.05;;;;;;;19.78;56.39;100763.50;686894;28;67384;-65
2021/09/10 01:33:52;;;;;;;9.48;7.38;;;;;;;19.76;56.50;100756.53;688866;28;45286;-64
2021/09/10 01:34:13;;;;;;;9.10;7.13;;;;;;;19.77;56.60;100759.06;689125;28;48142;-65
2021/09/10 01:34:34;;;;;;;8.38;6.82;;;;;;;19.74;56.50;100754.03;692168;28;22342;-65
2021/09/10 01:34:55;;;;;;;8.95;7.35;;;;;;;19.76;56.60;100756.53;691953;28;22396;-66
2021/09/10 01:35:18;;;;;;;8.60;7.70;;;;;;;19.73;56.63;100760.59;691832;28;12389;-65
2021/09/10 01:35:39;;;;;;;9.48;7.80;;;;;;;19.72;56.66;100764.41;690213;28;69402;-65
2021/09/10 01:36:00;;;;;;;8.82;7.70;;;;;;;19.71;56.67;100762.72;691723;28;21549;-65
2021/09/10 01:36:21;;;;;;;9.13;7.55;;;;;;;19.70;56.92;100763.81;691334;28;22235;-65
2021/09/10 01:36:42;;;;;;;8.82;7.50;;;;;;;19.69;56.56;100761.31;690041;28;23477;-65
2021/09/10 01:37:04;;;;;;;9.70;7.80;;;;;;;19.67;56.50;100764.28;689131;28;8695;-68
2021/09/10 01:37:26;;;;;;;10.88;7.57;;;;;;;19.65;56.66;100762.84;687424;28;45258;-68
2021/09/10 01:37:47;;;;;;;8.80;7.70;;;;;;;19.64;56.57;100767.50;686939;28;46282;-65
2021/09/10 01:38:10;;;;;;;10.25;7.82;;;;;;;19.63;56.61;100760.34;687930;28;46110;-66
2021/09/10 01:38:31;;;;;;;9.52;8.02;;;;;;;19.65;56.67;100762.84;687855;28;45279;-67
2021/09/10 01:38:52;;;;;;;9.45;8.02;;;;;;;19.66;56.57;100762.63;689061;28;23483;-68
2021/09/10 01:39:13;;;;;;;8.77;7.95;;;;;;;19.67;56.59;100764.28;691524;28;22325;-67
2021/09/10 01:39:36;;;;;;;8.70;7.60;;;;;;;19.69;56.52;100764.06;690243;28;23492;-67
2021/09/10 01:39:57;;;;;;;9.88;7.68;;;;;;;19.70;56.36;100757.50;688897;28;92326;-65
2021/09/10 01:40:18;;;;;;;8.50;7.60;;;;;;;19.71;56.44;100760.00;691660;28;21503;-66
2021/09/10 01:40:40;;;;;;;8.57;7.70;;;;;;;19.72;56.29;100760.84;691807;28;22404;-65
2021/09/10 01:41:01;;;;;;;8.57;7.78;;;;;;;19.73;56.29;100762.50;689256;28;45874;-65
2021/09/10 01:41:22;;;;;;;8.60;7.80;;;;;;;19.72;56.35;100758.09;690444;28;21536;-65
2021/09/10 01:41:44;;;;;;;9.88;7.63;;;;;;;19.73;56.34;100759.75;691300;28;22404;-65
2021/09/10 01:42:06;;;;;;;9.70;7.70;;;;;;;19.73;56.31;100755.13;691441;28;22409;-65